sensor_id;sensor_type;location;lat;lon;timestamp;P1;durP1;ratioP1;P2;durP2;ratioP2
20846;SDS011;10584;50.854;12.902;2023-03-23T00:00:47;2.40;;;1.40;;
20846;SDS011;10584;50.854;12.902;2023-03-23T00:06:17;1.67;;;1.20;;
20846;SDS011;10584;50.854;12.902;2023-03-23T00:11:41;2.40;;;1.20;;
20846;SDS011;10584;50.854;12.902;2023-03-23T00:17:14;2.13;;;1.40;;
20846;SDS011;10584;50.854;12.902;2023-03-23T00:22:47;2.40;;;1.40;;
20846;SDS011;10584;50.854;12.902;2023-03-23T00:28:24;2.03;;;1.20;;
20846;SDS011;10584;50.854;12.902;2023-03-23T00:34:02;2.70;;;1.17;;
20846;SDS011;10584;50.854;12.902;2023-03-23T00:39:27;1.67;;;1.00;;
20846;SDS011;10584;50.854;12.902;2023-03-23T00:44:47;1.83;;;1.30;;
20846;SDS011;10584;50.854;12.902;2023-03-23T00:50:09;1.83;;;1.23;;
20846;SDS011;10584;50.854;12.902;2023-03-23T00:55:32;4.47;;;1.33;;
20846;SDS011;10584;50.854;12.902;2023-03-23T01:00:53;1.90;;;1.00;;
20846;SDS011;10584;50.854;12.902;2023-03-23T01:06:18;3.00;;;1.10;;
20846;SDS011;10584;50.854;12.902;2023-03-23T01:12:04;1.63;;;1.17;;
20846;SDS011;10584;50.854;12.902;2023-03-23T01:17:35;2.80;;;1.00;;
20846;SDS011;10584;50.854;12.902;2023-03-23T01:23:06;2.93;;;1.30;;
20846;SDS011;10584;50.854;12.902;2023-03-23T01:28:36;1.43;;;1.03;;
20846;SDS011;10584;50.854;12.902;2023-03-23T01:33:58;2.60;;;1.20;;
20846;SDS011;10584;50.854;12.902;2023-03-23T01:39:21;2.10;;;1.20;;
20846;SDS011;10584;50.854;12.902;2023-03-23T01:50:07;2.53;;;1.23;;
20846;SDS011;10584;50.854;12.902;2023-03-23T01:55:29;1.20;;;1.10;;
20846;SDS011;10584;50.854;12.902;2023-03-23T02:00:50;1.60;;;1.20;;
20846;SDS011;10584;50.854;12.902;2023-03-23T02:06:17;1.40;;;1.10;;
20846;SDS011;10584;50.854;12.902;2023-03-23T02:12:00;2.90;;;1.20;;
20846;SDS011;10584;50.854;12.902;2023-03-23T02:34:53;1.80;;;1.30;;
20846;SDS011;10584;50.854;12.902;2023-03-23T02:40:19;2.00;;;1.27;;
20846;SDS011;10584;50.854;12.902;2023-03-23T02:45:44;2.37;;;1.33;;
20846;SDS011;10584;50.854;12.902;2023-03-23T02:51:16;1.60;;;1.30;;
20846;SDS011;10584;50.854;12.902;2023-03-23T02:56:46;1.90;;;1.30;;
20846;SDS011;10584;50.854;12.902;2023-03-23T03:02:35;2.83;;;1.50;;
20846;SDS011;10584;50.854;12.902;2023-03-23T03:13:49;3.00;;;1.37;;
20846;SDS011;10584;50.854;12.902;2023-03-23T03:19:26;2.63;;;1.50;;
20846;SDS011;10584;50.854;12.902;2023-03-23T03:24:51;5.57;;;1.90;;
20846;SDS011;10584;50.854;12.902;2023-03-23T03:30:16;6.50;;;1.70;;
20846;SDS011;10584;50.854;12.902;2023-03-23T03:35:41;2.13;;;1.50;;
20846;SDS011;10584;50.854;12.902;2023-03-23T03:41:08;2.23;;;1.40;;
20846;SDS011;10584;50.854;12.902;2023-03-23T03:46:48;2.63;;;1.40;;
20846;SDS011;10584;50.854;12.902;2023-03-23T03:52:37;1.83;;;1.23;;
20846;SDS011;10584;50.854;12.902;2023-03-23T03:58:13;2.90;;;1.57;;
20846;SDS011;10584;50.854;12.902;2023-03-23T04:04:05;1.77;;;1.40;;
20846;SDS011;10584;50.854;12.902;2023-03-23T04:09:45;3.67;;;1.60;;
20846;SDS011;10584;50.854;12.902;2023-03-23T04:15:09;4.20;;;1.50;;
20846;SDS011;10584;50.854;12.902;2023-03-23T04:20:29;2.50;;;1.63;;
20846;SDS011;10584;50.854;12.902;2023-03-23T04:25:54;1.93;;;1.50;;
20846;SDS011;10584;50.854;12.902;2023-03-23T04:31:28;2.53;;;1.53;;
20846;SDS011;10584;50.854;12.902;2023-03-23T04:37:08;2.00;;;1.33;;
20846;SDS011;10584;50.854;12.902;2023-03-23T04:42:44;2.70;;;1.60;;
20846;SDS011;10584;50.854;12.902;2023-03-23T04:48:46;2.30;;;1.60;;
20846;SDS011;10584;50.854;12.902;2023-03-23T04:54:24;3.20;;;1.80;;
20846;SDS011;10584;50.854;12.902;2023-03-23T04:59:51;2.10;;;1.60;;
20846;SDS011;10584;50.854;12.902;2023-03-23T05:05:22;3.13;;;2.00;;
20846;SDS011;10584;50.854;12.902;2023-03-23T05:11:06;3.30;;;1.70;;
20846;SDS011;10584;50.854;12.902;2023-03-23T05:16:41;2.80;;;1.50;;
20846;SDS011;10584;50.854;12.902;2023-03-23T05:22:19;2.83;;;1.60;;
20846;SDS011;10584;50.854;12.902;2023-03-23T05:27:59;3.13;;;1.40;;
20846;SDS011;10584;50.854;12.902;2023-03-23T05:33:58;2.20;;;1.50;;
20846;SDS011;10584;50.854;12.902;2023-03-23T05:39:30;3.30;;;1.40;;
20846;SDS011;10584;50.854;12.902;2023-03-23T05:45:11;2.17;;;1.50;;
20846;SDS011;10584;50.854;12.902;2023-03-23T05:50:33;2.70;;;1.67;;
20846;SDS011;10584;50.854;12.902;2023-03-23T05:55:58;5.37;;;1.60;;
20846;SDS011;10584;50.854;12.902;2023-03-23T06:02:05;4.23;;;1.50;;
20846;SDS011;10584;50.854;12.902;2023-03-23T06:07:27;2.53;;;1.50;;
20846;SDS011;10584;50.854;12.902;2023-03-23T06:12:55;2.40;;;1.77;;
20846;SDS011;10584;50.854;12.902;2023-03-23T06:18:30;3.47;;;1.60;;
20846;SDS011;10584;50.854;12.902;2023-03-23T06:24:07;6.17;;;1.63;;
20846;SDS011;10584;50.854;12.902;2023-03-23T06:29:31;2.47;;;1.50;;
20846;SDS011;10584;50.854;12.902;2023-03-23T06:34:52;4.20;;;1.80;;
20846;SDS011;10584;50.854;12.902;2023-03-23T06:40:54;2.23;;;1.60;;
20846;SDS011;10584;50.854;12.902;2023-03-23T06:46:39;2.63;;;1.70;;
20846;SDS011;10584;50.854;12.902;2023-03-23T06:52:24;2.60;;;1.80;;
20846;SDS011;10584;50.854;12.902;2023-03-23T06:58:06;2.80;;;1.87;;
20846;SDS011;10584;50.854;12.902;2023-03-23T07:03:35;3.93;;;1.93;;
20846;SDS011;10584;50.854;12.902;2023-03-23T07:09:06;2.60;;;1.83;;
20846;SDS011;10584;50.854;12.902;2023-03-23T07:14:27;2.33;;;1.73;;
20846;SDS011;10584;50.854;12.902;2023-03-23T07:19:47;2.30;;;1.50;;
20846;SDS011;10584;50.854;12.902;2023-03-23T07:25:09;2.10;;;1.60;;
20846;SDS011;10584;50.854;12.902;2023-03-23T07:30:39;4.03;;;1.60;;
20846;SDS011;10584;50.854;12.902;2023-03-23T07:36:08;5.03;;;1.90;;
20846;SDS011;10584;50.854;12.902;2023-03-23T07:41:57;3.47;;;1.97;;
20846;SDS011;10584;50.854;12.902;2023-03-23T07:47:49;2.87;;;1.80;;
20846;SDS011;10584;50.854;12.902;2023-03-23T07:53:24;3.53;;;2.00;;
20846;SDS011;10584;50.854;12.902;2023-03-23T07:59:27;2.80;;;1.77;;
20846;SDS011;10584;50.854;12.902;2023-03-23T08:04:50;5.97;;;2.00;;
20846;SDS011;10584;50.854;12.902;2023-03-23T08:10:29;2.93;;;1.97;;
20846;SDS011;10584;50.854;12.902;2023-03-23T08:16:14;2.80;;;2.00;;
20846;SDS011;10584;50.854;12.902;2023-03-23T08:22:01;3.67;;;2.03;;
20846;SDS011;10584;50.854;12.902;2023-03-23T08:28:02;3.07;;;2.13;;
20846;SDS011;10584;50.854;12.902;2023-03-23T08:33:41;4.60;;;2.30;;
20846;SDS011;10584;50.854;12.902;2023-03-23T08:39:30;5.13;;;2.47;;
20846;SDS011;10584;50.854;12.902;2023-03-23T08:45:10;4.10;;;2.30;;
20846;SDS011;10584;50.854;12.902;2023-03-23T08:50:53;3.80;;;2.30;;
20846;SDS011;10584;50.854;12.902;2023-03-23T08:56:44;6.83;;;2.67;;
20846;SDS011;10584;50.854;12.902;2023-03-23T09:02:37;3.30;;;2.20;;
20846;SDS011;10584;50.854;12.902;2023-03-23T09:08:30;3.37;;;2.33;;
20846;SDS011;10584;50.854;12.902;2023-03-23T09:13:53;3.77;;;2.53;;
20846;SDS011;10584;50.854;12.902;2023-03-23T09:19:19;4.87;;;2.30;;
20846;SDS011;10584;50.854;12.902;2023-03-23T09:24:42;6.30;;;2.80;;
20846;SDS011;10584;50.854;12.902;2023-03-23T09:30:11;5.83;;;2.03;;
20846;SDS011;10584;50.854;12.902;2023-03-23T09:35:33;4.00;;;2.20;;
20846;SDS011;10584;50.854;12.902;2023-03-23T09:41:01;3.23;;;2.00;;
20846;SDS011;10584;50.854;12.902;2023-03-23T09:46:52;4.67;;;2.40;;
20846;SDS011;10584;50.854;12.902;2023-03-23T09:52:42;4.03;;;2.00;;
20846;SDS011;10584;50.854;12.902;2023-03-23T09:58:35;3.50;;;1.93;;
20846;SDS011;10584;50.854;12.902;2023-03-23T10:10:08;2.43;;;1.60;;
20846;SDS011;10584;50.854;12.902;2023-03-23T10:15:34;3.47;;;2.23;;
20846;SDS011;10584;50.854;12.902;2023-03-23T10:21:01;4.87;;;1.70;;
20846;SDS011;10584;50.854;12.902;2023-03-23T10:32:36;2.33;;;1.30;;
20846;SDS011;10584;50.854;12.902;2023-03-23T10:38:43;1.97;;;1.50;;
20846;SDS011;10584;50.854;12.902;2023-03-23T10:44:25;3.60;;;1.80;;
20846;SDS011;10584;50.854;12.902;2023-03-23T10:55:16;2.30;;;1.90;;
20846;SDS011;10584;50.854;12.902;2023-03-23T11:00:42;2.73;;;1.80;;
20846;SDS011;10584;50.854;12.902;2023-03-23T11:06:09;3.17;;;1.70;;
20846;SDS011;10584;50.854;12.902;2023-03-23T11:12:02;5.43;;;1.50;;
20846;SDS011;10584;50.854;12.902;2023-03-23T11:17:25;3.60;;;1.83;;
20846;SDS011;10584;50.854;12.902;2023-03-23T11:23:00;3.70;;;1.97;;
20846;SDS011;10584;50.854;12.902;2023-03-23T11:28:38;2.87;;;1.80;;
20846;SDS011;10584;50.854;12.902;2023-03-23T11:34:14;5.20;;;1.70;;
20846;SDS011;10584;50.854;12.902;2023-03-23T11:39:56;3.87;;;1.90;;
20846;SDS011;10584;50.854;12.902;2023-03-23T11:51:20;3.57;;;2.43;;
20846;SDS011;10584;50.854;12.902;2023-03-23T11:57:12;4.73;;;2.40;;
20846;SDS011;10584;50.854;12.902;2023-03-23T12:02:52;3.53;;;2.40;;
20846;SDS011;10584;50.854;12.902;2023-03-23T12:08:58;4.03;;;2.37;;
20846;SDS011;10584;50.854;12.902;2023-03-23T12:44:15;3.20;;;1.97;;
20846;SDS011;10584;50.854;12.902;2023-03-23T12:55:47;3.30;;;1.90;;
20846;SDS011;10584;50.854;12.902;2023-03-23T13:01:50;2.63;;;1.47;;
20846;SDS011;10584;50.854;12.902;2023-03-23T13:07:46;3.50;;;1.80;;
20846;SDS011;10584;50.854;12.902;2023-03-23T13:13:16;10.10;;;1.90;;
20846;SDS011;10584;50.854;12.902;2023-03-23T13:19:01;2.80;;;1.60;;
20846;SDS011;10584;50.854;12.902;2023-03-23T13:24:50;3.17;;;1.93;;
20846;SDS011;10584;50.854;12.902;2023-03-23T13:30:20;2.43;;;1.80;;
20846;SDS011;10584;50.854;12.902;2023-03-23T13:35:44;3.90;;;1.50;;
20846;SDS011;10584;50.854;12.902;2023-03-23T13:41:18;2.83;;;1.87;;
20846;SDS011;10584;50.854;12.902;2023-03-23T13:46:57;3.30;;;1.97;;
20846;SDS011;10584;50.854;12.902;2023-03-23T13:53:12;5.87;;;1.90;;
20846;SDS011;10584;50.854;12.902;2023-03-23T13:59:28;3.03;;;1.77;;
20846;SDS011;10584;50.854;12.902;2023-03-23T14:04:50;2.60;;;1.80;;
20846;SDS011;10584;50.854;12.902;2023-03-23T14:10:15;4.43;;;1.90;;
20846;SDS011;10584;50.854;12.902;2023-03-23T14:15:54;2.50;;;1.80;;
20846;SDS011;10584;50.854;12.902;2023-03-23T14:21:49;5.27;;;2.13;;
20846;SDS011;10584;50.854;12.902;2023-03-23T14:27:28;3.37;;;2.00;;
20846;SDS011;10584;50.854;12.902;2023-03-23T14:33:05;2.47;;;1.43;;
20846;SDS011;10584;50.854;12.902;2023-03-23T14:38:34;3.70;;;1.80;;
20846;SDS011;10584;50.854;12.902;2023-03-23T14:44:00;4.13;;;1.77;;
20846;SDS011;10584;50.854;12.902;2023-03-23T14:49:32;1.93;;;1.43;;
20846;SDS011;10584;50.854;12.902;2023-03-23T14:55:09;2.53;;;1.50;;
20846;SDS011;10584;50.854;12.902;2023-03-23T15:00:40;1.53;;;1.27;;
20846;SDS011;10584;50.854;12.902;2023-03-23T15:06:16;2.37;;;1.30;;
20846;SDS011;10584;50.854;12.902;2023-03-23T15:12:03;2.27;;;1.13;;
20846;SDS011;10584;50.854;12.902;2023-03-23T15:17:37;1.77;;;1.23;;
20846;SDS011;10584;50.854;12.902;2023-03-23T15:23:28;1.77;;;1.30;;
20846;SDS011;10584;50.854;12.902;2023-03-23T15:29:23;1.97;;;1.37;;
20846;SDS011;10584;50.854;12.902;2023-03-23T15:34:44;2.10;;;1.40;;
20846;SDS011;10584;50.854;12.902;2023-03-23T15:40:04;5.27;;;1.10;;
20846;SDS011;10584;50.854;12.902;2023-03-23T15:45:33;2.20;;;1.37;;
20846;SDS011;10584;50.854;12.902;2023-03-23T15:50:56;2.23;;;1.40;;
20846;SDS011;10584;50.854;12.902;2023-03-23T15:56:35;2.30;;;1.53;;
20846;SDS011;10584;50.854;12.902;2023-03-23T16:02:13;4.43;;;1.20;;
20846;SDS011;10584;50.854;12.902;2023-03-23T16:08:00;4.80;;;1.20;;
20846;SDS011;10584;50.854;12.902;2023-03-23T16:13:22;1.33;;;1.20;;
20846;SDS011;10584;50.854;12.902;2023-03-23T16:19:11;1.40;;;1.10;;
20846;SDS011;10584;50.854;12.902;2023-03-23T16:24:41;2.60;;;1.13;;
20846;SDS011;10584;50.854;12.902;2023-03-23T16:30:16;3.10;;;1.13;;
20846;SDS011;10584;50.854;12.902;2023-03-23T16:35:43;1.47;;;1.13;;
20846;SDS011;10584;50.854;12.902;2023-03-23T16:41:23;3.23;;;1.30;;
20846;SDS011;10584;50.854;12.902;2023-03-23T16:47:06;3.80;;;1.47;;
20846;SDS011;10584;50.854;12.902;2023-03-23T16:52:48;3.97;;;1.63;;
20846;SDS011;10584;50.854;12.902;2023-03-23T16:58:19;3.83;;;1.50;;
20846;SDS011;10584;50.854;12.902;2023-03-23T17:03:55;3.47;;;2.00;;
20846;SDS011;10584;50.854;12.902;2023-03-23T17:09:42;2.90;;;2.00;;
20846;SDS011;10584;50.854;12.902;2023-03-23T17:15:30;8.33;;;2.20;;
20846;SDS011;10584;50.854;12.902;2023-03-23T17:20:54;3.77;;;1.93;;
20846;SDS011;10584;50.854;12.902;2023-03-23T17:26:44;5.50;;;2.60;;
20846;SDS011;10584;50.854;12.902;2023-03-23T17:32:26;10.10;;;4.30;;
20846;SDS011;10584;50.854;12.902;2023-03-23T17:38:13;26.80;;;10.87;;
20846;SDS011;10584;50.854;12.902;2023-03-23T17:43:56;9.23;;;5.13;;
20846;SDS011;10584;50.854;12.902;2023-03-23T17:49:27;4.93;;;2.97;;
20846;SDS011;10584;50.854;12.902;2023-03-23T17:54:49;5.10;;;3.03;;
20846;SDS011;10584;50.854;12.902;2023-03-23T18:00:10;5.60;;;2.80;;
20846;SDS011;10584;50.854;12.902;2023-03-23T18:05:35;5.33;;;3.07;;
20846;SDS011;10584;50.854;12.902;2023-03-23T18:11:10;5.77;;;3.53;;
20846;SDS011;10584;50.854;12.902;2023-03-23T18:16:51;6.17;;;3.33;;
20846;SDS011;10584;50.854;12.902;2023-03-23T18:22:36;6.67;;;3.60;;
20846;SDS011;10584;50.854;12.902;2023-03-23T18:28:21;9.63;;;5.17;;
20846;SDS011;10584;50.854;12.902;2023-03-23T18:34:04;5.37;;;3.67;;
20846;SDS011;10584;50.854;12.902;2023-03-23T18:39:33;4.87;;;3.53;;
20846;SDS011;10584;50.854;12.902;2023-03-23T18:44:56;8.47;;;4.10;;
20846;SDS011;10584;50.854;12.902;2023-03-23T18:50:18;7.13;;;3.80;;
20846;SDS011;10584;50.854;12.902;2023-03-23T18:55:41;5.70;;;3.80;;
20846;SDS011;10584;50.854;12.902;2023-03-23T19:01:08;5.17;;;2.90;;
20846;SDS011;10584;50.854;12.902;2023-03-23T19:06:49;5.73;;;2.97;;
20846;SDS011;10584;50.854;12.902;2023-03-23T19:12:28;3.80;;;2.57;;
20846;SDS011;10584;50.854;12.902;2023-03-23T19:18:15;4.97;;;2.50;;
20846;SDS011;10584;50.854;12.902;2023-03-23T19:23:51;3.77;;;2.27;;
20846;SDS011;10584;50.854;12.902;2023-03-23T19:29:21;4.67;;;2.30;;
20846;SDS011;10584;50.854;12.902;2023-03-23T19:34:49;3.20;;;2.13;;
20846;SDS011;10584;50.854;12.902;2023-03-23T19:40:11;3.70;;;2.13;;
20846;SDS011;10584;50.854;12.902;2023-03-23T19:45:55;2.37;;;1.90;;
20846;SDS011;10584;50.854;12.902;2023-03-23T19:51:42;4.00;;;2.00;;
20846;SDS011;10584;50.854;12.902;2023-03-23T19:57:36;8.30;;;3.77;;
20846;SDS011;10584;50.854;12.902;2023-03-23T20:03:18;3.00;;;1.90;;
20846;SDS011;10584;50.854;12.902;2023-03-23T20:09:02;3.57;;;2.10;;
20846;SDS011;10584;50.854;12.902;2023-03-23T20:14:47;2.57;;;1.83;;
20846;SDS011;10584;50.854;12.902;2023-03-23T20:20:09;3.10;;;2.00;;
20846;SDS011;10584;50.854;12.902;2023-03-23T20:25:31;2.03;;;1.70;;
20846;SDS011;10584;50.854;12.902;2023-03-23T20:31:04;2.67;;;1.97;;
20846;SDS011;10584;50.854;12.902;2023-03-23T20:36:54;3.17;;;1.90;;
20846;SDS011;10584;50.854;12.902;2023-03-23T20:42:47;2.67;;;1.80;;
20846;SDS011;10584;50.854;12.902;2023-03-23T20:48:17;2.67;;;1.90;;
20846;SDS011;10584;50.854;12.902;2023-03-23T20:54:00;4.80;;;2.07;;
20846;SDS011;10584;50.854;12.902;2023-03-23T20:59:30;3.80;;;2.00;;
20846;SDS011;10584;50.854;12.902;2023-03-23T21:04:52;2.90;;;1.83;;
20846;SDS011;10584;50.854;12.902;2023-03-23T21:10:26;2.97;;;1.93;;
20846;SDS011;10584;50.854;12.902;2023-03-23T21:15:48;3.93;;;1.70;;
20846;SDS011;10584;50.854;12.902;2023-03-23T21:21:30;3.13;;;2.00;;
20846;SDS011;10584;50.854;12.902;2023-03-23T21:27:44;2.40;;;1.97;;
20846;SDS011;10584;50.854;12.902;2023-03-23T21:33:22;4.00;;;2.23;;
20846;SDS011;10584;50.854;12.902;2023-03-23T21:39:04;4.70;;;2.47;;
20846;SDS011;10584;50.854;12.902;2023-03-23T21:44:33;5.03;;;2.73;;
20846;SDS011;10584;50.854;12.902;2023-03-23T21:49:54;3.93;;;2.67;;
20846;SDS011;10584;50.854;12.902;2023-03-23T21:55:18;4.27;;;2.60;;
20846;SDS011;10584;50.854;12.902;2023-03-23T22:00:40;5.53;;;2.90;;
20846;SDS011;10584;50.854;12.902;2023-03-23T22:06:12;3.50;;;2.60;;
20846;SDS011;10584;50.854;12.902;2023-03-23T22:12:06;6.80;;;3.17;;
20846;SDS011;10584;50.854;12.902;2023-03-23T22:17:49;4.30;;;2.83;;
20846;SDS011;10584;50.854;12.902;2023-03-23T22:23:25;6.43;;;2.97;;
20846;SDS011;10584;50.854;12.902;2023-03-23T22:29:09;5.43;;;3.03;;
20846;SDS011;10584;50.854;12.902;2023-03-23T22:34:38;6.70;;;3.30;;
20846;SDS011;10584;50.854;12.902;2023-03-23T22:40:00;5.00;;;3.00;;
20846;SDS011;10584;50.854;12.902;2023-03-23T22:45:21;5.37;;;3.43;;
20846;SDS011;10584;50.854;12.902;2023-03-23T22:50:45;4.60;;;3.10;;
20846;SDS011;10584;50.854;12.902;2023-03-23T22:56:12;5.67;;;3.27;;
20846;SDS011;10584;50.854;12.902;2023-03-23T23:01:51;5.50;;;3.57;;
20846;SDS011;10584;50.854;12.902;2023-03-23T23:07:30;5.37;;;3.30;;
20846;SDS011;10584;50.854;12.902;2023-03-23T23:13:11;5.20;;;3.20;;
20846;SDS011;10584;50.854;12.902;2023-03-23T23:18:56;5.07;;;3.33;;
20846;SDS011;10584;50.854;12.902;2023-03-23T23:24:25;5.27;;;3.20;;
20846;SDS011;10584;50.854;12.902;2023-03-23T23:29:47;7.03;;;2.90;;
20846;SDS011;10584;50.854;12.902;2023-03-23T23:35:09;5.40;;;3.40;;
20846;SDS011;10584;50.854;12.902;2023-03-23T23:40:31;5.60;;;2.93;;
20846;SDS011;10584;50.854;12.902;2023-03-23T23:45:56;11.03;;;3.97;;
20846;SDS011;10584;50.854;12.902;2023-03-23T23:51:44;6.53;;;3.40;;
20846;SDS011;10584;50.854;12.902;2023-03-23T23:57:33;5.83;;;3.17;;
